Time;durP1;ratioP1;P1;durP2;ratioP2;P2;SDS_P1;SDS_P2;PMS_P1;PMS_P2;Temp;Humidity;BMP_temperature;BMP_pressure;BME280_temperature;BME280_humidity;BME280_pressure;Samples;Min_cycle;Max_cycle;Signal;HPM_P1;HPM_P2
2022/01/11 00:00:25;;;;;;;1.60;1.50;;;9.80;99.90;;;;;;5094455;28;20261;-71
2022/01/11 00:02:57;;;;;;;1.48;1.30;;;9.80;99.90;;;;;;5107147;28;20291;-72
2022/01/11 00:05:47;;;;;;;1.63;1.50;;;9.60;99.90;;;;;;5088484;28;20208;-77
2022/01/11 00:11:26;;;;;;;2.60;1.70;;;9.70;99.90;;;;;;5103696;28;20469;-74
2022/01/11 00:13:57;;;;;;;1.93;1.53;;;9.70;99.90;;;;;;5107023;28;20453;-74
2022/01/11 00:16:29;;;;;;;1.77;1.63;;;9.60;99.90;;;;;;5108473;28;20483;-73
2022/01/11 00:19:06;;;;;;;2.38;2.00;;;9.60;99.90;;;;;;5106572;28;20497;-72
2022/01/11 00:21:49;;;;;;;1.90;1.70;;;9.60;99.90;;;;;;5104199;28;20233;-73
2022/01/11 00:24:30;;;;;;;2.67;2.10;;;9.50;99.90;;;;;;5105685;28;20226;-73
2022/01/11 00:28:02;;;;;;;3.23;2.30;;;9.30;99.90;;;;;;5107597;28;20219;-75
2022/01/11 00:30:51;;;;;;;4.20;1.90;;;9.20;99.90;;;;;;5081862;28;20992;-74
2022/01/11 00:33:43;;;;;;;2.50;2.10;;;9.20;99.90;;;;;;5103243;28;20268;-73
2022/01/11 00:36:29;;;;;;;2.22;2.05;;;9.10;99.90;;;;;;5099655;28;20235;-74
2022/01/11 01:08:07;;;;;;;2.08;1.88;;;8.80;99.90;;;;;;6126658;23;20219;-75
2022/01/11 01:10:40;;;;;;;3.28;2.17;;;8.80;99.90;;;;;;6124530;23;20183;-70
2022/01/11 01:13:14;;;;;;;2.40;2.15;;;8.70;99.90;;;;;;6132625;23;20229;-74
2022/01/11 01:15:46;;;;;;;1.45;1.35;;;8.80;99.90;;;;;;6127531;23;20507;-72
2022/01/11 01:18:21;;;;;;;2.47;1.55;;;8.90;99.90;;;;;;6129328;23;20230;-76
2022/01/11 01:20:52;;;;;;;2.25;1.80;;;8.90;99.90;;;;;;6127737;23;20262;-76
2022/01/11 01:23:27;;;;;;;1.92;1.73;;;8.90;99.90;;;;;;6124408;23;20182;-76
2022/01/11 01:25:58;;;;;;;4.00;2.03;;;8.90;99.90;;;;;;6128735;23;20193;-76
2022/01/11 01:28:32;;;;;;;2.60;2.15;;;8.80;99.90;;;;;;6126808;23;20191;-79
2022/01/11 01:31:04;;;;;;;2.47;2.00;;;8.80;99.90;;;;;;6124521;23;20238;-73
2022/01/11 01:33:38;;;;;;;2.03;1.92;;;8.70;99.90;;;;;;6126992;23;20234;-73
2022/01/11 01:36:11;;;;;;;2.38;2.17;;;8.60;99.90;;;;;;6118449;23;20476;-73
2022/01/11 01:39:09;;;;;;;5.05;2.40;;;8.70;99.90;;;;;;6128994;23;20214;-80
2022/01/11 01:41:44;;;;;;;2.40;2.20;;;8.60;99.90;;;;;;6129146;23;20478;-72
2022/01/11 01:44:16;;;;;;;2.78;2.30;;;8.70;99.90;;;;;;6126420;23;20182;-74
2022/01/11 01:46:48;;;;;;;3.72;2.20;;;8.70;99.90;;;;;;6127266;23;20750;-72
2022/01/11 01:49:51;;;;;;;5.53;2.38;;;8.70;99.90;;;;;;6120836;23;20226;-81
2022/01/11 01:52:44;;;;;;;3.05;2.80;;;8.70;99.90;;;;;;6120818;23;20214;-77
2022/01/11 01:55:21;;;;;;;2.60;2.40;;;8.70;99.90;;;;;;6123383;23;20182;-72
2022/01/11 02:02:29;;;;;;;3.33;3.03;;;8.70;99.90;;;;;;6095312;23;20602;-76
2022/01/11 02:05:07;;;;;;;3.17;2.88;;;8.60;99.90;;;;;;6093706;23;20180;-74
2022/01/11 02:08:10;;;;;;;3.85;3.00;;;8.60;99.90;;;;;;6089030;23;20673;-74
2022/01/11 02:11:40;;;;;;;2.90;2.65;;;8.60;99.90;;;;;;6081208;23;20224;-74
2022/01/11 02:14:15;;;;;;;3.33;3.03;;;8.50;99.90;;;;;;6087778;23;20652;-74
2022/01/11 02:16:51;;;;;;;3.13;2.80;;;8.60;99.90;;;;;;6090168;23;20233;-73
2022/01/11 02:20:11;;;;;;;3.80;3.15;;;8.60;99.90;;;;;;6090709;23;20190;-74
2022/01/11 02:22:45;;;;;;;2.85;2.63;;;8.70;99.90;;;;;;6082363;23;20255;-72
2022/01/11 02:25:17;;;;;;;2.70;2.50;;;8.70;99.90;;;;;;6087743;23;20212;-74
2022/01/11 02:28:02;;;;;;;3.05;2.60;;;8.70;99.90;;;;;;6089126;23;20191;-76
2022/01/11 02:30:45;;;;;;;3.58;2.80;;;8.80;99.90;;;;;;6091429;23;20553;-76
2022/01/11 02:33:37;;;;;;;3.80;2.53;;;8.80;99.90;;;;;;6090777;23;20207;-73
2022/01/11 02:36:10;;;;;;;2.35;2.15;;;8.90;99.90;;;;;;6090329;23;20184;-72
2022/01/11 02:42:52;;;;;;;1.80;1.70;;;8.90;99.90;;;;;;6091602;23;20184;-76
2022/01/11 02:45:32;;;;;;;2.45;2.25;;;8.80;99.90;;;;;;6090591;23;20181;-70
2022/01/11 02:48:04;;;;;;;2.38;2.17;;;8.80;99.90;;;;;;6089679;23;20191;-72
2022/01/11 02:50:36;;;;;;;1.73;1.63;;;8.90;99.90;;;;;;6091434;23;20267;-72
2022/01/11 02:53:07;;;;;;;3.00;2.00;;;8.80;99.90;;;;;;6086073;23;20503;-72
2022/01/11 02:55:40;;;;;;;1.90;1.80;;;8.90;99.90;;;;;;6088181;23;20211;-73
2022/01/11 02:58:12;;;;;;;2.07;1.67;;;8.90;99.90;;;;;;6090951;23;20184;-69
2022/01/11 03:00:43;;;;;;;2.55;2.05;;;8.90;99.90;;;;;;6089974;23;20412;-68
2022/01/11 03:07:34;;;;;;;1.90;1.80;;;9.10;99.90;;;;;;6028217;23;20214;-69
2022/01/11 03:10:19;;;;;;;1.90;1.70;;;9.00;99.90;;;;;;6084993;23;20272;-71
2022/01/11 03:12:53;;;;;;;2.40;2.20;;;8.90;99.90;;;;;;6092223;23;20263;-69
2022/01/11 03:15:28;;;;;;;2.47;2.20;;;8.90;99.90;;;;;;6090465;23;20835;-71
2022/01/11 03:22:02;;;;;;;2.05;1.95;;;8.70;99.90;;;;;;6085055;23;21038;-71
2022/01/11 03:29:42;;;;;;;2.08;1.92;;;8.60;99.90;;;;;;6020444;23;20303;-72
2022/01/11 03:36:55;;;;;;;1.73;1.63;;;8.60;99.90;;;;;;6085611;23;20379;-72
2022/01/11 03:39:46;;;;;;;1.98;1.70;;;8.50;99.90;;;;;;6083654;23;20183;-72
2022/01/11 03:43:06;;;;;;;1.70;1.60;;;8.50;99.90;;;;;;6086595;23;20191;-87
2022/01/11 03:50:21;;;;;;;2.00;1.90;;;8.40;99.90;;;;;;6067799;23;20288;-75
2022/01/11 03:53:26;;;;;;;1.65;1.55;;;8.40;99.90;;;;;;6056572;23;20267;-72
2022/01/11 04:59:51;;;;;;;2.50;2.30;;;8.50;99.90;;;;;;6037599;23;20235;-74
2022/01/11 05:02:33;;;;;;;2.50;2.30;;;8.50;99.90;;;;;;6089610;23;20185;-69
2022/01/11 05:05:07;;;;;;;1.95;1.85;;;8.50;99.90;;;;;;6088374;23;20227;-73
2022/01/11 05:10:50;;;;;;;2.60;2.40;;;8.60;99.90;;;;;;6085365;23;20235;-72
2022/01/11 05:21:11;;;;;;;2.75;2.55;;;8.50;99.90;;;;;;6083665;23;20200;-72
2022/01/11 05:47:52;;;;;;;3.58;3.28;;;8.60;99.90;;;;;;6091836;23;20252;-71
2022/01/11 06:02:31;;;;;;;5.63;3.92;;;8.50;99.90;;;;;;6084794;23;20591;-73
2022/01/11 06:54:10;;;;;;;4.80;4.40;;;8.80;99.90;;;;;;6071984;23;20244;-71
2022/01/11 07:01:32;;;;;;;6.38;5.78;;;8.80;99.90;;;;;;6033296;23;20327;-73
2022/01/11 07:24:54;;;;;;;6.93;6.25;;;8.50;99.90;;;;;;6088859;23;20508;-72
2022/01/11 07:27:27;;;;;;;7.68;6.97;;;8.50;99.90;;;;;;6091709;23;20239;-64
2022/01/11 07:29:58;;;;;;;7.55;6.85;;;8.50;99.90;;;;;;6087464;23;20191;-64
2022/01/11 07:32:31;;;;;;;9.20;7.45;;;8.60;99.90;;;;;;6092115;23;20223;-67
2022/01/11 07:35:02;;;;;;;7.55;6.80;;;8.50;99.90;;;;;;6089043;23;20204;-68
2022/01/11 07:37:33;;;;;;;8.10;7.30;;;8.50;99.90;;;;;;6091713;23;20220;-71
2022/01/11 07:40:07;;;;;;;8.70;7.90;;;8.40;99.90;;;;;;6089606;23;20220;-70
2022/01/11 07:42:38;;;;;;;7.43;6.72;;;8.40;99.90;;;;;;6088514;23;20588;-71
2022/01/11 07:45:10;;;;;;;9.73;8.10;;;8.40;99.90;;;;;;6091263;23;20276;-71
2022/01/11 07:47:40;;;;;;;7.13;6.43;;;8.40;99.90;;;;;;6089379;23;20180;-72
2022/01/11 07:50:13;;;;;;;7.78;7.05;;;8.50;99.90;;;;;;6090214;23;20195;-70
2022/01/11 07:52:44;;;;;;;7.75;7.00;;;8.50;99.90;;;;;;6092348;23;20280;-66
2022/01/11 07:55:16;;;;;;;7.80;6.90;;;8.60;99.90;;;;;;6088594;23;20213;-65
2022/01/11 07:57:47;;;;;;;7.60;6.82;;;8.60;99.90;;;;;;6090197;23;20259;-73
2022/01/11 08:00:19;;;;;;;8.85;7.05;;;8.60;99.90;;;;;;6089175;23;20508;-73
2022/01/11 08:02:50;;;;;;;8.25;7.35;;;8.60;99.90;;;;;;6092644;23;20323;-73
2022/01/11 08:05:21;;;;;;;10.13;6.60;;;8.50;99.90;;;;;;6087597;23;20259;-74
2022/01/11 08:07:52;;;;;;;7.60;6.88;;;8.40;99.90;;;;;;6089538;23;20188;-71
2022/01/11 08:10:25;;;;;;;8.40;7.45;;;8.40;99.90;;;;;;6088928;23;20205;-68
2022/01/11 08:12:56;;;;;;;8.40;7.60;;;8.40;99.90;;;;;;6090348;23;20185;-68
2022/01/11 08:15:27;;;;;;;8.85;8.02;;;8.40;99.90;;;;;;6089467;23;20302;-69
2022/01/11 08:17:58;;;;;;;10.07;8.00;;;8.50;99.90;;;;;;6090122;23;20185;-69
2022/01/11 08:20:29;;;;;;;9.65;7.85;;;8.50;99.90;;;;;;6089236;23;20251;-70
2022/01/11 08:23:00;;;;;;;10.27;8.33;;;8.50;99.90;;;;;;6091614;23;20195;-67
2022/01/11 08:25:33;;;;;;;9.20;7.85;;;8.50;99.90;;;;;;6088910;23;20426;-69
2022/01/11 08:28:05;;;;;;;9.52;7.88;;;8.50;99.90;;;;;;6089977;23;20210;-69
2022/01/11 08:30:39;;;;;;;9.70;8.50;;;8.50;99.90;;;;;;6086761;23;20184;-70
2022/01/11 08:33:12;;;;;;;9.18;7.88;;;8.60;99.90;;;;;;6091707;23;20212;-69
2022/01/11 08:35:43;;;;;;;9.77;8.45;;;8.60;99.90;;;;;;6086388;23;20212;-69
2022/01/11 08:38:14;;;;;;;9.55;8.45;;;8.60;99.90;;;;;;6089647;23;20190;-69
2022/01/11 08:40:47;;;;;;;9.50;8.52;;;8.50;99.90;;;;;;6089011;23;20185;-69
2022/01/11 08:43:18;;;;;;;8.45;7.65;;;8.40;99.90;;;;;;6091449;23;20191;-69
2022/01/11 08:45:49;;;;;;;10.38;7.90;;;8.40;99.90;;;;;;6087420;23;20188;-68
2022/01/11 08:48:20;;;;;;;8.85;7.82;;;8.40;99.90;;;;;;6091559;23;20188;-69
2022/01/11 08:50:53;;;;;;;8.60;7.00;;;8.50;99.90;;;;;;6088824;23;20184;-70
2022/01/11 08:53:24;;;;;;;7.78;7.00;;;8.50;99.90;;;;;;6091719;23;20645;-67
2022/01/11 08:55:58;;;;;;;8.57;7.00;;;8.60;99.90;;;;;;6089218;23;20539;-70
2022/01/11 08:58:28;;;;;;;8.55;7.68;;;8.60;99.90;;;;;;6090209;23;20184;-69
2022/01/11 09:00:59;;;;;;;8.98;7.95;;;8.70;99.90;;;;;;6088555;23;20602;-69
2022/01/11 09:03:31;;;;;;;9.13;8.32;;;8.70;99.90;;;;;;6092002;23;20198;-71
2022/01/11 09:06:04;;;;;;;9.63;8.65;;;8.60;99.90;;;;;;6086448;23;20184;-72
2022/01/11 09:08:35;;;;;;;11.80;9.93;;;8.60;99.90;;;;;;6090935;23;20264;-70
2022/01/11 09:11:08;;;;;;;9.60;8.35;;;8.50;99.90;;;;;;6088592;23;20225;-71
2022/01/11 09:13:39;;;;;;;10.45;7.80;;;8.50;99.90;;;;;;6091646;23;20269;-71
2022/01/11 09:16:11;;;;;;;8.93;8.02;;;8.40;99.90;;;;;;6090818;23;20667;-72
2022/01/11 09:18:42;;;;;;;8.57;7.72;;;8.40;99.90;;;;;;6093680;23;20595;-71
2022/01/11 09:21:13;;;;;;;9.68;7.85;;;8.30;99.90;;;;;;6089815;23;20188;-71
2022/01/11 09:23:44;;;;;;;8.70;7.80;;;8.30;99.90;;;;;;6091592;23;20188;-71
2022/01/11 09:26:16;;;;;;;8.23;7.30;;;8.20;99.90;;;;;;6091928;23;20187;-71
2022/01/11 09:28:47;;;;;;;7.70;6.90;;;8.20;99.90;;;;;;6090988;23;20494;-71
2022/01/11 09:31:18;;;;;;;6.63;6.03;;;8.30;99.90;;;;;;6088516;23;20220;-72
2022/01/11 09:33:50;;;;;;;7.82;7.05;;;8.30;99.90;;;;;;6089614;23;20504;-71
2022/01/11 09:36:21;;;;;;;7.07;6.47;;;8.30;99.90;;;;;;6089522;23;20498;-72
2022/01/11 09:38:52;;;;;;;7.15;6.45;;;8.30;99.90;;;;;;6093401;23;20318;-70
2022/01/11 09:41:25;;;;;;;7.20;6.30;;;8.30;99.90;;;;;;6090145;23;20185;-72
2022/01/11 09:43:57;;;;;;;7.25;5.72;;;8.30;99.90;;;;;;6093299;23;20185;-71
2022/01/11 09:46:28;;;;;;;7.13;6.43;;;8.20;99.90;;;;;;6088701;23;20191;-71
2022/01/11 09:48:59;;;;;;;9.02;7.00;;;8.10;99.90;;;;;;6092843;23;20638;-71
2022/01/11 09:51:33;;;;;;;7.00;6.32;;;8.10;99.90;;;;;;6089735;23;20211;-72
2022/01/11 09:54:04;;;;;;;7.55;6.28;;;8.10;99.90;;;;;;6090425;23;20205;-71
2022/01/11 09:56:38;;;;;;;6.40;5.70;;;8.10;99.90;;;;;;6092093;23;20657;-71
2022/01/11 09:59:09;;;;;;;6.60;5.80;;;8.10;99.90;;;;;;6086394;23;20198;-72
2022/01/11 10:01:40;;;;;;;6.97;5.80;;;8.00;99.90;;;;;;6090065;23;20185;-71
2022/01/11 10:04:12;;;;;;;6.35;5.75;;;7.90;99.90;;;;;;6089342;23;20310;-71
2022/01/11 10:06:53;;;;;;;8.63;5.97;;;7.90;99.90;;;;;;6090328;23;20268;-71
2022/01/11 10:09:24;;;;;;;4.35;4.03;;;7.90;99.90;;;;;;6089746;23;20637;-71
2022/01/11 10:11:58;;;;;;;5.70;5.00;;;8.00;99.90;;;;;;6092686;23;20656;-71
2022/01/11 10:14:31;;;;;;;5.00;4.40;;;8.10;99.90;;;;;;6090574;23;20283;-72
2022/01/11 10:17:17;;;;;;;4.70;4.30;;;8.10;99.90;;;;;;6090412;23;20295;-72
2022/01/11 10:19:50;;;;;;;4.50;4.10;;;8.10;99.90;;;;;;6088934;23;20191;-72
2022/01/11 10:22:24;;;;;;;4.22;3.83;;;8.00;99.90;;;;;;6092409;23;20188;-71
2022/01/11 10:24:56;;;;;;;4.05;3.70;;;7.90;99.90;;;;;;6089653;23;20263;-72
2022/01/11 10:27:30;;;;;;;4.45;4.05;;;7.90;99.90;;;;;;6090308;23;20180;-71
2022/01/11 10:30:05;;;;;;;4.03;3.60;;;8.00;99.90;;;;;;6087705;23;20192;-71
2022/01/11 10:32:37;;;;;;;4.20;3.90;;;8.10;99.90;;;;;;6092131;23;20199;-70
2022/01/11 10:35:11;;;;;;;3.00;2.80;;;8.00;99.90;;;;;;6089092;23;20272;-72
2022/01/11 10:38:05;;;;;;;3.35;3.00;;;8.00;99.90;;;;;;6092510;23;20559;-71
2022/01/11 10:40:39;;;;;;;4.07;3.22;;;7.90;99.90;;;;;;6089611;23;20601;-70
2022/01/11 10:43:14;;;;;;;3.42;2.85;;;8.00;99.90;;;;;;6091992;23;20226;-70
2022/01/11 10:45:47;;;;;;;2.70;2.50;;;7.90;99.90;;;;;;6089636;23;20526;-70
2022/01/11 10:48:19;;;;;;;4.72;2.88;;;8.00;99.90;;;;;;6090073;23;20196;-71
2022/01/11 10:50:56;;;;;;;3.42;3.13;;;7.90;99.90;;;;;;6091465;23;20234;-71
2022/01/11 10:53:28;;;;;;;4.85;2.78;;;7.90;99.90;;;;;;6091883;23;20291;-70
2022/01/11 10:56:01;;;;;;;3.58;2.90;;;8.00;99.90;;;;;;6089182;23;20212;-71
2022/01/11 10:59:09;;;;;;;3.15;2.95;;;8.00;99.90;;;;;;6092335;23;20184;-70
2022/01/11 11:01:42;;;;;;;4.18;3.60;;;8.00;99.90;;;;;;6089820;23;20265;-71
2022/01/11 11:04:31;;;;;;;3.38;3.00;;;8.00;99.90;;;;;;6088532;23;20188;-71
2022/01/11 11:07:13;;;;;;;2.90;2.70;;;8.00;99.90;;;;;;6091984;23;20478;-71
2022/01/11 11:09:48;;;;;;;3.42;3.13;;;7.90;99.90;;;;;;6089340;23;20188;-71
2022/01/11 11:12:20;;;;;;;3.40;3.08;;;7.90;99.90;;;;;;6089910;23;20210;-71
2022/01/11 11:14:54;;;;;;;3.40;3.10;;;7.90;99.90;;;;;;6084091;23;20279;-71
2022/01/11 11:17:30;;;;;;;4.25;2.95;;;8.00;99.90;;;;;;6087730;23;20515;-71
2022/01/11 11:20:02;;;;;;;3.88;3.15;;;7.90;99.90;;;;;;6089337;23;20234;-72
2022/01/11 11:22:33;;;;;;;3.75;3.45;;;7.80;99.90;;;;;;6092017;23;20219;-71
2022/01/11 11:25:05;;;;;;;3.45;3.15;;;7.80;99.90;;;;;;6089296;23;20634;-71
2022/01/11 11:27:36;;;;;;;3.60;2.95;;;7.90;99.90;;;;;;6088404;23;20216;-72
2022/01/11 11:30:09;;;;;;;4.63;2.78;;;7.90;99.90;;;;;;6090846;23;20190;-72
2022/01/11 11:32:41;;;;;;;3.00;2.80;;;7.90;99.90;;;;;;6091348;23;20505;-71
2022/01/11 11:35:13;;;;;;;3.35;3.05;;;7.90;99.90;;;;;;6088874;23;20192;-71
2022/01/11 11:37:47;;;;;;;4.60;3.17;;;7.90;99.90;;;;;;6091558;23;20212;-72
2022/01/11 11:40:21;;;;;;;3.40;3.10;;;7.90;99.90;;;;;;6085477;23;20274;-71
2022/01/11 11:42:56;;;;;;;3.80;3.00;;;8.00;99.90;;;;;;6084461;23;20194;-71
2022/01/11 11:45:32;;;;;;;5.30;3.00;;;8.00;99.90;;;;;;6087031;23;20267;-71
2022/01/11 11:48:08;;;;;;;3.50;2.55;;;8.00;99.90;;;;;;6090322;23;20635;-70
2022/01/11 11:50:51;;;;;;;4.93;3.28;;;8.00;99.90;;;;;;6088828;23;20180;-71
2022/01/11 11:53:28;;;;;;;2.85;2.65;;;8.00;99.90;;;;;;6091066;23;20192;-71
2022/01/11 11:56:17;;;;;;;2.92;2.72;;;8.00;99.90;;;;;;6089251;23;20191;-71
2022/01/11 11:58:50;;;;;;;3.28;3.05;;;8.00;99.90;;;;;;6091436;23;20223;-72
2022/01/11 12:01:50;;;;;;;2.75;2.55;;;7.90;99.90;;;;;;6089590;23;20283;-70
2022/01/11 12:04:54;;;;;;;3.00;2.70;;;7.90;99.90;;;;;;6021198;23;20267;-71
2022/01/11 12:07:36;;;;;;;3.25;2.95;;;7.90;99.90;;;;;;6086091;23;20466;-72
2022/01/11 12:10:14;;;;;;;2.60;2.40;;;7.90;99.90;;;;;;6086626;23;20725;-71
2022/01/11 12:12:49;;;;;;;2.67;2.30;;;8.00;99.90;;;;;;6089553;23;20199;-71
2022/01/11 12:15:40;;;;;;;2.90;2.70;;;7.90;99.90;;;;;;6089075;23;20274;-71
2022/01/11 12:18:19;;;;;;;2.42;2.30;;;7.90;99.90;;;;;;6089836;23;20204;-71
2022/01/11 12:20:52;;;;;;;3.10;2.80;;;7.90;99.90;;;;;;6090565;23;20184;-72
2022/01/11 12:23:53;;;;;;;4.85;3.30;;;7.90;99.90;;;;;;6088495;23;20268;-72
2022/01/11 12:26:26;;;;;;;2.85;2.65;;;8.00;99.90;;;;;;6091435;23;20674;-72
2022/01/11 12:29:25;;;;;;;3.17;2.90;;;8.00;99.90;;;;;;6090025;23;20625;-72
2022/01/11 12:32:02;;;;;;;3.42;2.70;;;7.90;99.90;;;;;;6090069;23;20191;-71
2022/01/11 12:34:54;;;;;;;2.70;2.50;;;7.80;99.90;;;;;;6087077;23;20271;-71
2022/01/11 12:37:38;;;;;;;3.30;3.00;;;7.80;99.90;;;;;;6089788;23;20223;-71
2022/01/11 12:40:15;;;;;;;4.40;3.22;;;7.90;99.90;;;;;;6088692;23;20184;-71
2022/01/11 12:42:54;;;;;;;3.70;2.72;;;8.00;99.90;;;;;;6087558;23;20274;-71
2022/01/11 12:45:58;;;;;;;3.38;3.08;;;8.00;99.90;;;;;;6091040;23;20677;-71
2022/01/11 12:49:02;;;;;;;4.28;3.88;;;8.10;99.90;;;;;;6083593;23;20307;-71
2022/01/11 12:51:48;;;;;;;3.15;2.90;;;8.10;99.90;;;;;;6089638;23;20633;-70
2022/01/11 12:54:29;;;;;;;5.97;3.15;;;8.00;99.90;;;;;;6090677;23;20263;-71
2022/01/11 12:57:02;;;;;;;3.47;3.15;;;7.90;99.90;;;;;;6089401;23;20185;-70
2022/01/11 12:59:34;;;;;;;3.70;3.35;;;7.90;99.90;;;;;;6091119;23;20185;-70
2022/01/11 13:02:09;;;;;;;3.85;3.17;;;7.90;99.90;;;;;;6091759;23;20189;-72
2022/01/11 13:04:49;;;;;;;3.83;2.97;;;7.90;99.90;;;;;;6088468;23;20198;-71
2022/01/11 13:07:25;;;;;;;3.33;3.03;;;7.80;99.90;;;;;;6089518;23;20581;-71
2022/01/11 13:10:18;;;;;;;4.22;3.28;;;7.80;99.90;;;;;;6089619;23;20210;-71
2022/01/11 13:12:54;;;;;;;4.20;3.90;;;7.80;99.90;;;;;;6086514;23;20695;-70
2022/01/11 13:15:32;;;;;;;3.95;3.65;;;7.80;99.90;;;;;;6088551;23;20311;-69
2022/01/11 13:18:10;;;;;;;3.92;2.83;;;7.80;99.90;;;;;;6085570;23;20303;-69
2022/01/11 13:20:53;;;;;;;3.30;3.00;;;7.80;99.90;;;;;;6090369;23;20184;-71
2022/01/11 13:23:31;;;;;;;3.50;3.30;;;7.80;99.90;;;;;;6090369;23;20194;-71
2022/01/11 13:26:04;;;;;;;5.13;3.47;;;7.70;99.90;;;;;;6090347;23;20312;-71
2022/01/11 13:28:37;;;;;;;7.13;3.20;;;7.60;99.90;;;;;;6089234;23;20251;-71
2022/01/11 13:31:14;;;;;;;2.65;2.45;;;7.50;99.90;;;;;;6089946;23;20249;-72
2022/01/11 13:33:50;;;;;;;3.53;3.22;;;7.50;99.90;;;;;;6087777;23;20189;-71
2022/01/11 13:36:23;;;;;;;3.97;2.95;;;7.60;99.90;;;;;;6086284;23;20188;-71
2022/01/11 13:38:59;;;;;;;3.63;3.33;;;7.60;99.90;;;;;;6089285;23;20211;-72
2022/01/11 13:41:31;;;;;;;3.30;3.10;;;7.60;99.90;;;;;;6090892;23;20263;-72
2022/01/11 13:44:09;;;;;;;3.75;2.95;;;7.60;99.90;;;;;;6088575;23;20192;-72
2022/01/11 13:46:43;;;;;;;3.95;3.55;;;7.60;99.90;;;;;;6087039;23;20184;-71
2022/01/11 13:49:18;;;;;;;3.67;3.33;;;7.60;99.90;;;;;;6089375;23;20525;-72
2022/01/11 13:51:54;;;;;;;5.03;4.05;;;7.60;99.90;;;;;;6089160;23;20592;-72
2022/01/11 13:54:33;;;;;;;4.55;4.18;;;7.60;99.90;;;;;;6090430;23;20210;-71
2022/01/11 13:57:06;;;;;;;5.03;4.47;;;7.60;99.90;;;;;;6089220;23;20185;-72
2022/01/11 13:59:38;;;;;;;4.20;3.65;;;7.60;99.90;;;;;;6088540;23;20288;-72
2022/01/11 14:02:14;;;;;;;4.50;3.67;;;7.70;99.90;;;;;;6089042;23;20464;-72
2022/01/11 14:04:48;;;;;;;3.58;3.28;;;7.60;99.90;;;;;;6090166;23;20194;-71
2022/01/11 14:07:23;;;;;;;3.70;3.40;;;7.60;99.90;;;;;;6092689;23;20671;-72
2022/01/11 14:09:58;;;;;;;4.20;3.80;;;7.60;99.90;;;;;;6090668;23;20522;-72
2022/01/11 14:12:30;;;;;;;3.63;3.33;;;7.40;99.90;;;;;;6092903;23;20549;-71
2022/01/11 14:15:24;;;;;;;3.75;3.45;;;7.40;99.90;;;;;;6089747;23;20189;-72
2022/01/11 14:17:55;;;;;;;3.97;3.55;;;7.30;99.90;;;;;;6089496;23;20212;-72
2022/01/11 14:20:27;;;;;;;3.85;3.55;;;7.30;99.90;;;;;;6089639;23;20202;-71
2022/01/11 14:23:00;;;;;;;3.53;3.22;;;7.20;99.90;;;;;;6091216;23;20268;-71
2022/01/11 14:25:34;;;;;;;5.18;2.90;;;7.20;99.90;;;;;;6091784;23;20185;-71
2022/01/11 14:28:08;;;;;;;4.50;3.85;;;7.20;99.90;;;;;;6090647;23;20192;-71
2022/01/11 14:30:44;;;;;;;3.90;3.58;;;7.10;99.90;;;;;;6090793;23;20188;-72
2022/01/11 14:33:27;;;;;;;4.00;3.60;;;7.10;99.90;;;;;;6090945;23;20190;-72
2022/01/11 14:36:00;;;;;;;4.30;3.90;;;7.00;99.90;;;;;;6088325;23;20189;-71
2022/01/11 14:38:43;;;;;;;3.88;3.53;;;7.00;99.90;;;;;;6092814;23;20660;-71
2022/01/11 14:41:18;;;;;;;3.80;3.50;;;7.10;99.90;;;;;;6091955;23;20640;-71
2022/01/11 14:44:02;;;;;;;4.32;3.83;;;7.00;99.90;;;;;;6090787;23;20594;-71
2022/01/11 14:46:41;;;;;;;4.10;3.63;;;7.00;99.90;;;;;;6090585;23;20248;-72
2022/01/11 14:49:14;;;;;;;4.10;3.80;;;7.10;99.90;;;;;;6089820;23;20678;-72
2022/01/11 14:51:46;;;;;;;5.53;3.90;;;7.20;99.90;;;;;;6092193;23;20200;-71
2022/01/11 14:54:19;;;;;;;4.75;3.90;;;7.10;99.90;;;;;;6088205;23;20233;-72
2022/01/11 14:56:54;;;;;;;6.57;4.97;;;7.00;99.90;;;;;;6090306;23;20195;-72
2022/01/11 14:59:26;;;;;;;4.32;3.90;;;7.10;99.90;;;;;;6090483;23;20207;-72
2022/01/11 15:01:59;;;;;;;8.95;5.03;;;7.00;99.90;;;;;;6089141;23;20188;-72
2022/01/11 15:04:32;;;;;;;5.28;4.78;;;7.00;99.90;;;;;;6088886;23;20239;-71
2022/01/11 15:07:05;;;;;;;5.00;4.50;;;7.10;99.90;;;;;;6092017;23;20191;-71
2022/01/11 15:09:38;;;;;;;6.82;4.78;;;7.10;99.90;;;;;;6089623;23;20652;-71
2022/01/11 15:12:15;;;;;;;6.63;4.80;;;7.10;99.90;;;;;;6090088;23;20208;-71
2022/01/11 15:14:47;;;;;;;5.25;4.50;;;7.10;99.90;;;;;;6092109;23;20188;-71
2022/01/11 15:17:18;;;;;;;6.72;4.15;;;7.10;99.90;;;;;;6087917;23;20218;-71
2022/01/11 15:19:51;;;;;;;4.95;3.50;;;7.10;99.90;;;;;;6088881;23;20211;-71
2022/01/11 15:22:22;;;;;;;4.40;3.97;;;7.20;99.90;;;;;;6089885;23;20184;-71
2022/01/11 15:24:53;;;;;;;5.20;4.60;;;7.10;99.90;;;;;;6091384;23;20191;-71
2022/01/11 15:27:31;;;;;;;5.00;4.60;;;7.10;99.90;;;;;;6089836;23;20184;-71
2022/01/11 15:30:02;;;;;;;6.40;4.60;;;7.10;99.90;;;;;;6085600;23;20612;-70
2022/01/11 15:32:32;;;;;;;5.78;5.00;;;7.10;99.90;;;;;;6089481;23;20605;-72
2022/01/11 15:35:04;;;;;;;6.90;5.00;;;7.20;99.90;;;;;;6088931;23;20501;-71
2022/01/11 15:37:35;;;;;;;5.88;5.10;;;7.10;99.90;;;;;;6091746;23;20210;-70
2022/01/11 15:40:08;;;;;;;7.63;5.07;;;7.10;99.90;;;;;;6088295;23;20204;-71
2022/01/11 15:42:41;;;;;;;6.47;4.30;;;7.10;99.90;;;;;;6089989;23;20197;-71
2022/01/11 15:45:12;;;;;;;5.90;4.80;;;7.00;99.90;;;;;;6089180;23;20184;-72
2022/01/11 15:47:42;;;;;;;6.38;4.82;;;7.10;99.90;;;;;;6089376;23;20273;-73
2022/01/11 15:50:14;;;;;;;6.43;4.88;;;7.10;99.90;;;;;;6088596;23;20502;-71
2022/01/11 15:52:44;;;;;;;6.50;4.47;;;7.10;99.90;;;;;;6091886;23;20188;-71
2022/01/11 15:55:15;;;;;;;6.57;4.45;;;7.10;99.90;;;;;;6086565;23;20497;-71
2022/01/11 15:57:48;;;;;;;5.75;4.70;;;7.10;99.90;;;;;;6091926;23;20188;-76
2022/01/11 16:00:19;;;;;;;9.40;5.75;;;7.10;99.90;;;;;;6087163;23;20541;-76
2022/01/11 16:02:49;;;;;;;9.82;6.28;;;7.10;99.90;;;;;;6087230;23;20184;-74
2022/01/11 16:05:21;;;;;;;6.20;5.38;;;7.20;99.90;;;;;;6087454;23;20197;-71
2022/01/11 16:07:54;;;;;;;1830.30;339.90;;;7.20;99.90;;;;;;6091823;23;20658;-71
2022/01/11 16:10:25;;;;;;;7.35;5.65;;;7.30;99.90;;;;;;6088951;23;20218;-75
2022/01/11 16:12:58;;;;;;;8.57;5.88;;;7.30;99.90;;;;;;6087438;23;20184;-70
2022/01/11 16:15:29;;;;;;;250.20;47.50;;;7.30;99.90;;;;;;6090830;23;20204;-71
2022/01/11 16:17:59;;;;;;;6.30;5.70;;;7.20;99.90;;;;;;6089177;23;20268;-72
2022/01/11 16:20:30;;;;;;;6.82;5.28;;;7.30;99.90;;;;;;6089996;23;20204;-69
2022/01/11 16:23:02;;;;;;;7.93;5.65;;;7.40;99.90;;;;;;6088757;23;20260;-68
2022/01/11 16:25:32;;;;;;;1693.45;312.30;;;7.30;99.90;;;;;;6089953;23;20184;-69
2022/01/11 16:28:06;;;;;;;9.55;6.57;;;7.40;99.90;;;;;;6088830;23;20248;-69
2022/01/11 16:30:39;;;;;;;7.65;6.20;;;7.40;99.90;;;;;;6086518;23;20196;-67
2022/01/11 16:33:13;;;;;;;1999.90;571.58;;;7.40;99.90;;;;;;6086504;23;20605;-73
2022/01/11 16:35:46;;;;;;;7.75;6.97;;;7.60;99.90;;;;;;6086119;23;20184;-67
2022/01/11 16:38:17;;;;;;;118.80;26.35;;;7.70;99.90;;;;;;6091244;23;20189;-64
2022/01/11 16:43:40;;;;;;;1674.20;299.33;;;7.60;99.90;;;;;;6088672;23;20294;-69
2022/01/11 16:46:12;;;;;;;6.82;5.88;;;7.60;99.90;;;;;;6087357;23;20192;-69
2022/01/11 16:48:43;;;;;;;134.00;30.42;;;7.70;99.90;;;;;;6089615;23;20235;-67
2022/01/11 16:51:15;;;;;;;179.38;34.17;;;7.70;99.90;;;;;;6083762;23;20180;-69
2022/01/11 16:53:45;;;;;;;7.93;6.65;;;7.70;99.90;;;;;;6091685;23;20224;-69
2022/01/11 16:56:16;;;;;;;7.40;6.25;;;7.60;99.90;;;;;;6088478;23;20196;-71
2022/01/11 16:58:49;;;;;;;7.00;6.30;;;7.60;99.90;;;;;;6091526;23;20283;-69
2022/01/11 17:01:20;;;;;;;10.05;7.70;;;7.60;99.90;;;;;;6087663;23;20672;-74
2022/01/11 17:03:51;;;;;;;1999.90;416.80;;;7.60;99.90;;;;;;6091208;23;20191;-70
2022/01/11 17:06:22;;;;;;;454.10;77.18;;;7.60;99.90;;;;;;6088854;23;20212;-71
2022/01/11 17:08:53;;;;;;;1999.90;549.25;;;7.80;99.90;;;;;;6088238;23;20184;-74
2022/01/11 17:11:23;;;;;;;8.70;7.50;;;7.90;99.90;;;;;;6088448;23;20212;-73
2022/01/11 17:13:56;;;;;;;9.27;8.25;;;7.90;99.90;;;;;;6089681;23;20263;-74
2022/01/11 17:16:27;;;;;;;8.63;7.78;;;7.80;99.90;;;;;;6086982;23;20199;-74
2022/01/11 17:18:58;;;;;;;9.48;7.10;;;7.70;99.90;;;;;;6091454;23;20185;-78
2022/01/11 17:21:28;;;;;;;10.18;7.47;;;7.70;99.90;;;;;;6088879;23;20218;-71
2022/01/11 17:23:59;;;;;;;8.25;6.80;;;7.60;99.90;;;;;;6091489;23;20192;-75
2022/01/11 17:26:30;;;;;;;9.25;6.97;;;7.70;99.90;;;;;;6089743;23;20263;-67
2022/01/11 17:29:03;;;;;;;7.40;6.65;;;7.80;99.90;;;;;;6091185;23;20640;-71
2022/01/11 17:31:34;;;;;;;7.93;7.13;;;7.90;99.90;;;;;;6087210;23;20244;-67
2022/01/11 17:34:05;;;;;;;8.93;7.07;;;8.00;99.90;;;;;;6086480;23;20184;-72
2022/01/11 17:36:36;;;;;;;7.78;7.07;;;8.00;99.90;;;;;;6092245;23;20191;-71
2022/01/11 17:39:07;;;;;;;7.55;6.90;;;8.10;99.90;;;;;;6089915;23;20185;-67
2022/01/11 17:41:37;;;;;;;7.50;6.80;;;8.20;99.90;;;;;;6093150;23;20204;-67
2022/01/11 17:44:10;;;;;;;9.50;7.55;;;8.30;99.90;;;;;;6090788;23;20184;-67
2022/01/11 17:46:41;;;;;;;7.00;6.30;;;8.40;99.90;;;;;;6091233;23;20189;-71
2022/01/11 17:49:12;;;;;;;7.03;6.37;;;8.40;99.90;;;;;;6089435;23;20259;-63
2022/01/11 17:51:43;;;;;;;6.90;6.30;;;8.50;99.90;;;;;;6089840;23;20908;-70